Time;durP1;ratioP1;P1;durP2;ratioP2;P2;SDS_P1;SDS_P2;PMS_P1;PMS_P2;Temp;Humidity;BMP_temperature;BMP_pressure;BME280_temperature;BME280_humidity;BME280_pressure;Samples;Min_cycle;Max_cycle;Signal;HPM_P1;HPM_P2
2023/04/12 00:01:39;;;;;;;5.97;5.07;;;5.10;72.60;;;;;;6314373;28;20296;-79
2023/04/12 00:04:42;;;;;;;5.43;5.03;;;5.10;72.70;;;;;;6302168;28;20232;-81
2023/04/12 00:07:45;;;;;;;5.10;4.70;;;5.00;72.60;;;;;;6284763;28;20229;-82
2023/04/12 00:10:49;;;;;;;5.10;4.80;;;5.00;72.60;;;;;;6288128;28;20507;-84
2023/04/12 00:13:56;;;;;;;4.60;4.40;;;5.00;72.60;;;;;;6287997;28;20429;-83
2023/04/12 00:16:59;;;;;;;5.13;4.73;;;5.00;72.70;;;;;;6280745;28;20240;-81
2023/04/12 00:20:06;;;;;;;6.20;5.23;;;5.00;72.70;;;;;;6287388;28;20236;-78
2023/04/12 00:23:11;;;;;;;4.97;4.60;;;5.00;72.70;;;;;;6279776;28;20687;-81
2023/04/12 00:26:14;;;;;;;5.23;4.93;;;5.00;72.70;;;;;;6288218;28;20247;-79
2023/04/12 00:29:20;;;;;;;5.00;4.70;;;4.90;72.80;;;;;;6287217;28;20618;-82
2023/04/12 00:32:23;;;;;;;4.83;4.53;;;4.90;72.80;;;;;;6280715;28;20375;-85
2023/04/12 00:35:26;;;;;;;5.27;5.00;;;4.80;72.80;;;;;;6287766;28;20233;-81
2023/04/12 00:38:29;;;;;;;4.97;4.57;;;4.70;73.00;;;;;;6291242;28;20253;-82
2023/04/12 00:41:32;;;;;;;4.70;4.50;;;4.80;73.00;;;;;;6286923;28;20366;-80
2023/04/12 00:44:37;;;;;;;5.07;4.73;;;4.70;73.00;;;;;;6287280;28;20233;-82
2023/04/12 00:47:41;;;;;;;4.63;4.33;;;4.70;73.20;;;;;;6285046;28;20244;-81
2023/04/12 00:50:45;;;;;;;5.20;5.00;;;4.70;73.20;;;;;;6288583;28;20600;-83
2023/04/12 00:53:49;;;;;;;4.97;4.57;;;4.70;73.30;;;;;;6287265;28;20235;-81
2023/04/12 00:56:52;;;;;;;4.60;4.40;;;4.70;73.30;;;;;;6285107;28;20263;-82
2023/04/12 00:59:57;;;;;;;4.60;4.50;;;4.60;73.20;;;;;;6288775;28;20676;-83
2023/04/12 01:03:01;;;;;;;5.00;4.70;;;4.60;73.30;;;;;;6271547;28;20637;-84
2023/04/12 01:06:13;;;;;;;4.73;4.30;;;4.50;73.40;;;;;;6291840;28;20236;-83
2023/04/12 01:09:36;;;;;;;4.70;4.40;;;4.50;73.40;;;;;;6289948;28;20233;-85
2023/04/12 01:12:50;;;;;;;4.93;4.70;;;4.50;73.40;;;;;;6294255;28;20322;-82
2023/04/12 01:16:04;;;;;;;5.00;4.80;;;4.50;73.40;;;;;;6292875;28;20318;-82
2023/04/12 01:19:21;;;;;;;5.17;4.77;;;4.50;73.60;;;;;;6288372;28;20476;-83
2023/04/12 01:22:37;;;;;;;4.20;4.10;;;4.40;73.60;;;;;;6293363;28;20245;-80
2023/04/12 01:25:57;;;;;;;4.80;4.63;;;4.40;73.70;;;;;;6290268;28;20232;-82
2023/04/12 01:29:04;;;;;;;6.40;5.87;;;4.40;73.80;;;;;;6294329;28;20633;-82
2023/04/12 01:32:11;;;;;;;5.70;5.30;;;4.40;73.80;;;;;;6284551;28;20570;-86
2023/04/12 01:35:15;;;;;;;6.37;5.57;;;4.30;73.90;;;;;;6276717;28;20221;-82
2023/04/12 01:38:19;;;;;;;6.07;5.67;;;4.30;73.90;;;;;;6292122;28;20229;-82
2023/04/12 01:41:23;;;;;;;6.97;6.47;;;4.30;73.90;;;;;;6290430;28;20729;-79
2023/04/12 01:44:27;;;;;;;8.33;7.60;;;4.20;73.90;;;;;;6291389;28;20260;-83
2023/04/12 01:47:30;;;;;;;10.27;9.23;;;4.20;74.00;;;;;;6291211;28;20733;-82
2023/04/12 01:50:41;;;;;;;14.73;12.37;;;4.20;73.90;;;;;;6290424;28;20229;-81
2023/04/12 01:53:50;;;;;;;10.93;9.83;;;4.10;73.90;;;;;;6287744;28;20239;-83
2023/04/12 01:56:57;;;;;;;8.90;8.10;;;4.10;74.00;;;;;;6299342;28;20233;-84
2023/04/12 02:00:05;;;;;;;8.47;7.87;;;4.00;74.00;;;;;;6291618;28;20225;-86
2023/04/12 02:03:11;;;;;;;7.97;7.37;;;4.00;74.10;;;;;;6282951;28;20263;-82
2023/04/12 02:06:15;;;;;;;8.10;7.43;;;4.00;74.20;;;;;;6278542;28;20519;-80
2023/04/12 02:09:18;;;;;;;7.73;7.03;;;3.90;74.30;;;;;;6290925;28;20233;-82
2023/04/12 02:12:22;;;;;;;6.20;5.90;;;3.90;74.30;;;;;;6292221;28;20245;-81
2023/04/12 02:15:27;;;;;;;6.07;5.60;;;3.90;74.30;;;;;;6299624;28;20512;-78
2023/04/12 02:18:31;;;;;;;5.37;5.17;;;3.90;74.20;;;;;;6320218;28;20231;-76
2023/04/12 02:21:40;;;;;;;5.00;4.80;;;3.80;74.30;;;;;;6320238;28;20236;-77
2023/04/12 02:24:44;;;;;;;5.57;5.27;;;3.80;74.30;;;;;;6312967;28;20221;-75
2023/04/12 02:27:48;;;;;;;5.00;4.80;;;3.80;74.30;;;;;;6306933;28;20304;-81
2023/04/12 02:30:53;;;;;;;6.20;5.73;;;3.80;74.30;;;;;;6285881;28;20301;-82
2023/04/12 02:33:56;;;;;;;5.43;5.00;;;3.70;74.40;;;;;;6286817;28;20233;-84
2023/04/12 02:37:00;;;;;;;5.67;5.27;;;3.70;74.30;;;;;;6289710;28;20513;-81
2023/04/12 02:40:04;;;;;;;5.63;5.13;;;3.70;74.30;;;;;;6288136;28;20374;-81
2023/04/12 02:43:08;;;;;;;5.27;5.00;;;3.70;74.20;;;;;;6290577;28;20792;-80
2023/04/12 02:46:18;;;;;;;4.87;4.60;;;3.70;74.10;;;;;;6281631;28;20644;-80
2023/04/12 02:49:21;;;;;;;4.97;4.67;;;3.60;74.20;;;;;;6284792;28;20242;-83
2023/04/12 02:52:25;;;;;;;5.70;5.17;;;3.60;74.30;;;;;;6289071;28;20237;-84
2023/04/12 02:55:29;;;;;;;5.57;5.17;;;3.50;74.30;;;;;;6290166;28;20491;-84
2023/04/12 02:58:33;;;;;;;4.60;4.50;;;3.50;74.40;;;;;;6283876;28;20296;-83
2023/04/12 03:01:38;;;;;;;5.40;5.17;;;3.50;74.40;;;;;;6281154;28;20245;-84
2023/04/12 03:04:45;;;;;;;4.93;4.83;;;3.50;74.50;;;;;;6290319;28;20233;-85
2023/04/12 03:07:48;;;;;;;6.27;5.83;;;3.50;74.40;;;;;;6283821;28;20229;-83
2023/04/12 03:10:52;;;;;;;5.40;5.00;;;3.40;74.50;;;;;;6281394;28;20611;-84
2023/04/12 03:13:55;;;;;;;6.70;6.10;;;3.40;74.40;;;;;;6288030;28;20229;-83
2023/04/12 03:17:00;;;;;;;6.80;6.03;;;3.40;74.50;;;;;;6287914;28;20739;-81
2023/04/12 03:20:08;;;;;;;5.80;5.40;;;3.30;74.50;;;;;;6288781;28;20637;-84
2023/04/12 03:23:12;;;;;;;7.63;6.03;;;3.30;74.50;;;;;;6280621;28;20735;-82
2023/04/12 03:26:15;;;;;;;6.57;6.03;;;3.30;74.70;;;;;;6288953;28;20244;-82
2023/04/12 03:29:18;;;;;;;6.43;5.83;;;3.30;74.80;;;;;;6288313;28;20598;-79
2023/04/12 03:32:22;;;;;;;6.50;5.90;;;3.20;74.80;;;;;;6272781;28;20316;-84
2023/04/12 03:35:25;;;;;;;6.67;6.27;;;3.20;75.00;;;;;;6287584;28;20237;-81
2023/04/12 03:38:29;;;;;;;6.60;6.20;;;3.20;74.90;;;;;;6287064;28;20240;-79
2023/04/12 03:41:32;;;;;;;7.53;6.77;;;3.20;75.00;;;;;;6286162;28;20390;-83
2023/04/12 03:44:35;;;;;;;6.40;5.90;;;3.20;75.10;;;;;;6287662;28;20240;-82
2023/04/12 03:47:39;;;;;;;6.90;6.40;;;3.20;75.10;;;;;;6284992;28;20233;-81
2023/04/12 03:50:44;;;;;;;6.67;6.10;;;3.10;75.10;;;;;;6282824;28;20233;-82
2023/04/12 03:53:47;;;;;;;6.53;6.23;;;3.10;75.20;;;;;;6285898;28;20762;-81
2023/04/12 03:56:50;;;;;;;5.73;5.43;;;3.10;75.40;;;;;;6285650;28;20237;-81
2023/04/12 03:59:53;;;;;;;5.70;5.40;;;3.10;75.30;;;;;;6281132;28;20240;-81
2023/04/12 04:03:02;;;;;;;5.50;5.30;;;3.10;75.20;;;;;;6281203;28;20263;-81
2023/04/12 04:06:06;;;;;;;5.40;5.10;;;3.00;75.20;;;;;;6285027;28;20654;-80
2023/04/12 04:09:09;;;;;;;5.33;5.03;;;3.00;75.20;;;;;;6283921;28;20323;-79
2023/04/12 04:12:12;;;;;;;5.70;5.30;;;3.00;75.20;;;;;;6271523;28;20244;-79
2023/04/12 04:15:16;;;;;;;5.33;5.10;;;3.00;75.20;;;;;;6277810;28;20256;-81
2023/04/12 04:18:20;;;;;;;6.20;5.60;;;3.00;75.20;;;;;;6284770;28;20594;-82
2023/04/12 04:21:23;;;;;;;5.80;5.50;;;2.90;75.20;;;;;;6278451;28;20403;-80
2023/04/12 04:24:26;;;;;;;5.47;5.20;;;3.00;75.20;;;;;;6317733;28;20406;-76
2023/04/12 04:27:33;;;;;;;6.23;5.73;;;3.00;75.20;;;;;;6317357;28;20251;-77
2023/04/12 04:30:37;;;;;;;7.30;6.80;;;3.00;75.30;;;;;;6312930;28;20297;-78
2023/04/12 04:33:42;;;;;;;7.23;6.77;;;3.00;75.30;;;;;;6314134;28;20255;-78
2023/04/12 04:36:45;;;;;;;7.33;6.73;;;3.00;75.40;;;;;;6316374;28;20404;-78
2023/04/12 04:39:51;;;;;;;7.83;7.17;;;3.10;75.40;;;;;;6314156;28;20245;-78
2023/04/12 04:42:54;;;;;;;7.33;6.77;;;3.00;75.40;;;;;;6316110;28;20245;-79
2023/04/12 04:45:58;;;;;;;8.37;7.63;;;3.00;75.40;;;;;;6307970;28;20382;-79
2023/04/12 04:49:02;;;;;;;7.87;7.10;;;3.10;75.40;;;;;;6293914;28;20244;-79
2023/04/12 04:52:08;;;;;;;8.47;7.83;;;3.10;75.50;;;;;;6308595;28;20236;-81
2023/04/12 04:55:11;;;;;;;8.23;7.53;;;3.10;75.50;;;;;;6286983;28;20488;-80
2023/04/12 04:58:15;;;;;;;7.47;6.87;;;3.10;75.50;;;;;;6275049;28;20320;-77
2023/04/12 05:01:18;;;;;;;7.17;6.67;;;3.10;75.30;;;;;;6278349;28;20238;-79
2023/04/12 05:04:23;;;;;;;7.30;6.70;;;3.30;75.20;;;;;;6278055;28;20261;-80
2023/04/12 05:07:26;;;;;;;6.93;6.40;;;3.20;74.80;;;;;;6280571;28;20237;-81
2023/04/12 05:10:29;;;;;;;7.90;7.03;;;3.20;74.80;;;;;;6293967;28;20237;-81
2023/04/12 05:13:32;;;;;;;7.83;6.50;;;3.20;74.90;;;;;;6293312;28;20228;-78
2023/04/12 05:16:35;;;;;;;7.53;7.10;;;3.30;74.90;;;;;;6311846;28;20297;-77
2023/04/12 05:19:42;;;;;;;7.67;7.03;;;3.30;74.70;;;;;;6313272;28;20240;-78
2023/04/12 05:22:45;;;;;;;7.63;6.90;;;3.30;74.50;;;;;;6315779;28;20233;-78
2023/04/12 05:25:49;;;;;;;8.20;7.50;;;3.50;74.10;;;;;;6316036;28;20257;-78
2023/04/12 05:28:52;;;;;;;9.67;6.57;;;3.60;73.60;;;;;;6307089;28;20225;-79
2023/04/12 05:31:55;;;;;;;7.77;7.20;;;3.60;73.00;;;;;;6308831;28;20674;-79
2023/04/12 05:34:59;;;;;;;7.93;7.13;;;3.60;73.00;;;;;;6286800;28;20241;-81
2023/04/12 05:38:02;;;;;;;8.40;7.77;;;3.60;72.90;;;;;;6267723;28;20236;-81
2023/04/12 05:41:06;;;;;;;8.57;7.97;;;3.70;73.00;;;;;;6275847;28;20453;-82
2023/04/12 05:44:09;;;;;;;9.03;8.13;;;3.80;73.10;;;;;;6286646;28;20278;-80
2023/04/12 05:47:12;;;;;;;8.47;7.70;;;3.90;73.10;;;;;;6280382;28;20612;-80
2023/04/12 05:50:17;;;;;;;8.13;7.43;;;4.00;73.00;;;;;;6288144;28;20243;-78
2023/04/12 05:53:21;;;;;;;8.03;7.40;;;4.10;72.90;;;;;;6290355;28;20282;-79
2023/04/12 05:56:24;;;;;;;7.63;7.13;;;4.30;72.80;;;;;;6287733;28;20225;-81
2023/04/12 05:59:27;;;;;;;8.50;7.63;;;4.50;72.50;;;;;;6288741;28;20248;-81
2023/04/12 06:02:31;;;;;;;7.93;7.17;;;4.60;72.20;;;;;;6286281;28;20233;-81
2023/04/12 06:05:35;;;;;;;8.27;7.53;;;4.70;71.80;;;;;;6288678;28;20253;-80
2023/04/12 06:08:39;;;;;;;8.07;7.37;;;4.80;71.20;;;;;;6283210;28;20374;-82
2023/04/12 06:11:42;;;;;;;7.20;6.67;;;5.00;70.80;;;;;;6286590;28;20230;-80
2023/04/12 06:14:45;;;;;;;8.70;6.97;;;5.20;70.50;;;;;;6286040;28;20363;-81
2023/04/12 06:17:49;;;;;;;8.87;7.70;;;5.50;69.90;;;;;;6288302;28;20257;-78
2023/04/12 06:20:54;;;;;;;7.80;7.00;;;5.90;69.00;;;;;;6283976;28;20644;-81
2023/04/12 06:23:57;;;;;;;8.17;7.37;;;6.10;68.10;;;;;;6288116;28;20233;-79
2023/04/12 06:27:00;;;;;;;7.80;7.20;;;6.40;67.60;;;;;;6288338;28;20385;-77
2023/04/12 06:30:04;;;;;;;7.20;6.60;;;6.40;66.90;;;;;;6288483;28;20507;-78
2023/04/12 06:33:07;;;;;;;6.80;6.20;;;7.00;67.20;;;;;;6288724;28;20255;-80
2023/04/12 06:36:13;;;;;;;5.93;5.60;;;7.50;65.00;;;;;;6289492;28;20241;-81
2023/04/12 06:39:16;;;;;;;6.47;5.83;;;7.60;64.00;;;;;;6282932;28;20480;-80
2023/04/12 06:42:19;;;;;;;7.40;5.53;;;7.70;63.50;;;;;;6289787;28;20234;-82
2023/04/12 06:45:22;;;;;;;6.50;5.70;;;7.50;63.20;;;;;;6288461;28;20237;-80
2023/04/12 06:48:26;;;;;;;7.40;6.70;;;7.50;63.70;;;;;;6283632;28;20242;-82
2023/04/12 06:51:30;;;;;;;6.00;5.50;;;7.60;63.90;;;;;;6288993;28;20501;-79
2023/04/12 06:54:33;;;;;;;6.70;6.20;;;7.80;63.90;;;;;;6291291;28;20240;-78
2023/04/12 06:57:36;;;;;;;7.33;6.70;;;7.80;63.60;;;;;;6302320;28;20248;-77
2023/04/12 07:00:39;;;;;;;12.70;7.53;;;7.90;63.60;;;;;;6317649;28;20228;-79
2023/04/12 07:03:43;;;;;;;9.30;7.00;;;8.00;63.30;;;;;;6313556;28;20282;-77
2023/04/12 07:06:48;;;;;;;6.67;6.07;;;8.00;63.80;;;;;;6310259;28;20218;-76
2023/04/12 07:09:51;;;;;;;6.40;5.90;;;8.10;63.30;;;;;;6299434;27;20286;-77
2023/04/12 07:12:55;;;;;;;5.97;5.47;;;8.00;62.50;;;;;;6290048;28;20312;-78
2023/04/12 07:15:59;;;;;;;8.77;5.77;;;8.10;61.90;;;;;;6282555;28;20244;-79
2023/04/12 07:19:02;;;;;;;6.20;5.57;;;8.10;62.30;;;;;;6285991;28;20229;-81
2023/04/12 07:22:07;;;;;;;6.43;5.90;;;8.10;62.30;;;;;;6288760;28;20240;-81
2023/04/12 07:25:10;;;;;;;7.43;6.30;;;8.00;61.90;;;;;;6289747;28;20237;-82
2023/04/12 07:28:13;;;;;;;7.90;6.00;;;8.10;62.10;;;;;;6282979;28;20837;-81
2023/04/12 07:31:17;;;;;;;8.17;5.83;;;8.20;62.30;;;;;;6289429;28;20462;-80
2023/04/12 07:34:20;;;;;;;5.67;5.10;;;8.40;62.00;;;;;;6288163;28;20918;-80
2023/04/12 07:37:25;;;;;;;5.90;5.50;;;8.50;61.60;;;;;;6288277;28;20241;-79
2023/04/12 07:40:29;;;;;;;7.83;4.97;;;8.60;61.40;;;;;;6288969;28;20628;-80
2023/04/12 07:43:32;;;;;;;5.33;4.93;;;8.80;61.00;;;;;;6295531;28;20233;-81
2023/04/12 07:46:35;;;;;;;5.10;4.80;;;8.90;60.50;;;;;;6295028;28;20279;-77
2023/04/12 07:49:39;;;;;;;4.40;4.07;;;9.00;60.00;;;;;;6294446;28;21196;-79
2023/04/12 07:52:43;;;;;;;4.53;4.17;;;9.20;60.30;;;;;;6298896;28;20233;-79
2023/04/12 07:55:47;;;;;;;4.43;4.10;;;9.30;59.10;;;;;;6305436;28;20256;-77
2023/04/12 07:58:50;;;;;;;5.73;4.13;;;9.40;59.10;;;;;;6306773;28;20255;-78
2023/04/12 08:01:53;;;;;;;3.97;3.60;;;9.50;58.90;;;;;;6285549;28;20551;-80
2023/04/12 08:04:56;;;;;;;3.70;3.40;;;9.60;57.80;;;;;;6287063;28;20526;-82
2023/04/12 08:08:01;;;;;;;4.47;3.57;;;9.80;57.40;;;;;;6286589;28;20233;-82
2023/04/12 08:11:05;;;;;;;4.93;3.87;;;9.90;57.50;;;;;;6280984;28;20244;-80
2023/04/12 08:14:09;;;;;;;5.20;3.60;;;10.00;57.30;;;;;;6287167;28;20268;-81
2023/04/12 08:17:12;;;;;;;3.87;3.60;;;9.90;56.40;;;;;;6287258;28;20237;-80
2023/04/12 08:20:15;;;;;;;3.00;2.80;;;10.00;56.40;;;;;;6283214;28;20621;-79
2023/04/12 08:23:20;;;;;;;4.03;3.70;;;10.20;55.90;;;;;;6280428;28;20642;-79
2023/04/12 08:26:25;;;;;;;6.97;3.50;;;10.30;56.00;;;;;;6279820;28;20267;-80
2023/04/12 08:29:28;;;;;;;3.47;3.27;;;10.50;55.60;;;;;;6286418;28;20260;-79
2023/04/12 08:32:31;;;;;;;3.47;3.10;;;10.40;54.90;;;;;;6280688;28;20241;-82
2023/04/12 08:35:34;;;;;;;3.73;3.43;;;10.60;55.30;;;;;;6289878;28;20233;-80
2023/04/12 08:38:39;;;;;;;3.00;2.80;;;10.80;55.00;;;;;;6286994;28;20253;-81
2023/04/12 08:41:49;;;;;;;4.43;2.80;;;10.90;54.10;;;;;;6287863;28;20229;-80
2023/04/12 08:44:53;;;;;;;3.57;2.90;;;11.00;53.30;;;;;;6288273;28;20643;-80
2023/04/12 08:47:56;;;;;;;3.10;2.93;;;11.00;53.30;;;;;;6286522;28;20710;-80
2023/04/12 08:51:01;;;;;;;4.97;2.80;;;11.10;52.50;;;;;;6285747;28;20240;-80
2023/04/12 08:54:06;;;;;;;4.13;2.93;;;11.30;52.00;;;;;;6287651;28;20750;-81
2023/04/12 08:57:10;;;;;;;4.93;3.27;;;11.50;51.80;;;;;;6282389;28;20234;-80
2023/04/12 09:00:17;;;;;;;3.17;2.97;;;11.50;51.50;;;;;;6290842;28;20328;-78
2023/04/12 09:03:20;;;;;;;4.13;2.97;;;11.40;52.00;;;;;;6297530;28;20257;-79
2023/04/12 09:06:24;;;;;;;3.43;3.13;;;11.50;52.00;;;;;;6290731;28;20247;-80
2023/04/12 09:09:45;;;;;;;3.93;2.90;;;11.70;52.00;;;;;;6293491;28;20344;-80
2023/04/12 09:12:48;;;;;;;3.17;2.63;;;11.80;51.00;;;;;;6300482;28;20221;-75
2023/04/12 09:15:54;;;;;;;3.30;3.00;;;11.70;50.00;;;;;;6305147;28;20230;-77
2023/04/12 09:19:01;;;;;;;2.47;2.27;;;11.80;49.60;;;;;;6298480;28;20221;-79
2023/04/12 09:22:04;;;;;;;2.73;2.53;;;11.90;49.40;;;;;;6298430;28;20243;-77
2023/04/12 09:25:09;;;;;;;3.37;2.90;;;11.90;48.90;;;;;;6297592;28;20387;-81
2023/04/12 09:28:20;;;;;;;2.87;2.60;;;12.10;48.40;;;;;;6292303;28;20236;-81
2023/04/12 09:31:23;;;;;;;2.83;2.63;;;12.20;49.40;;;;;;6296842;28;20245;-83
2023/04/12 09:34:26;;;;;;;3.40;3.03;;;12.20;48.80;;;;;;6302509;28;20237;-80
2023/04/12 09:37:30;;;;;;;3.03;2.93;;;12.40;48.00;;;;;;6302873;28;20328;-76
2023/04/12 09:40:35;;;;;;;4.20;3.03;;;12.20;48.00;;;;;;6297914;28;20316;-81
2023/04/12 09:43:39;;;;;;;5.27;2.87;;;12.50;47.80;;;;;;6293550;28;20717;-82
2023/04/12 09:46:51;;;;;;;4.90;3.47;;;12.50;47.10;;;;;;6287154;28;20248;-79
2023/04/12 09:49:55;;;;;;;2.90;2.80;;;12.50;47.00;;;;;;6292289;28;20391;-82
2023/04/12 09:52:59;;;;;;;5.13;3.50;;;12.50;47.30;;;;;;6292230;28;20418;-81
2023/04/12 09:56:05;;;;;;;4.57;3.03;;;12.50;46.70;;;;;;6290420;28;20233;-80
2023/04/12 09:59:08;;;;;;;3.47;3.23;;;12.60;46.20;;;;;;6281817;28;20301;-78
2023/04/12 10:02:15;;;;;;;3.60;3.30;;;12.70;46.90;;;;;;6289841;28;20341;-82
2023/04/12 10:05:21;;;;;;;3.17;3.03;;;12.70;47.40;;;;;;6288477;28;20233;-77
2023/04/12 10:08:26;;;;;;;3.27;3.00;;;12.80;46.60;;;;;;6290152;28;20237;-80
2023/04/12 10:11:32;;;;;;;2.97;2.77;;;13.00;46.20;;;;;;6291367;28;20320;-76
2023/04/12 10:14:37;;;;;;;4.53;2.97;;;12.80;46.10;;;;;;6283236;28;20252;-80
2023/04/12 10:17:44;;;;;;;4.30;3.13;;;12.90;45.80;;;;;;6288421;28;20268;-79
2023/04/12 10:20:47;;;;;;;5.70;5.23;;;13.10;46.30;;;;;;6286513;28;20709;-83
2023/04/12 10:23:51;;;;;;;3.20;2.97;;;13.20;45.40;;;;;;6297381;28;20359;-80
2023/04/12 10:26:59;;;;;;;2.93;2.60;;;13.30;45.20;;;;;;6283745;28;20295;-81
2023/04/12 10:30:21;;;;;;;3.00;2.80;;;13.60;45.20;;;;;;6288477;28;20241;-79
2023/04/12 10:33:26;;;;;;;3.13;2.77;;;13.60;45.10;;;;;;6304968;28;20724;-81
2023/04/12 10:36:52;;;;;;;2.90;2.80;;;13.70;44.70;;;;;;6284536;28;20823;-80
2023/04/12 10:39:55;;;;;;;3.23;2.57;;;13.90;45.00;;;;;;6290385;28;20306;-80
2023/04/12 10:43:27;;;;;;;3.80;2.80;;;14.10;45.10;;;;;;6291271;28;20237;-80
2023/04/12 10:46:50;;;;;;;4.20;3.40;;;14.30;43.90;;;;;;6281036;28;20269;-81
2023/04/12 10:50:23;;;;;;;12.23;3.50;;;14.30;44.30;;;;;;6298870;28;20513;-77
2023/04/12 10:53:26;;;;;;;3.00;2.70;;;14.10;44.50;;;;;;6308550;28;20652;-77
2023/04/12 10:56:39;;;;;;;2.90;2.77;;;14.20;44.70;;;;;;6316322;28;20225;-79
2023/04/12 11:00:02;;;;;;;2.97;2.60;;;14.20;44.50;;;;;;6303758;28;20612;-82
2023/04/12 11:03:10;;;;;;;9.27;3.23;;;14.50;44.70;;;;;;6295367;28;20254;-80
2023/04/12 11:06:15;;;;;;;2.97;2.77;;;14.40;44.00;;;;;;6293820;28;20251;-80
2023/04/12 11:09:38;;;;;;;3.23;3.03;;;14.40;43.90;;;;;;6292625;28;20233;-78
2023/04/12 11:12:41;;;;;;;3.90;2.90;;;14.50;44.60;;;;;;6301725;28;20260;-79
2023/04/12 11:15:46;;;;;;;5.53;3.03;;;14.50;44.20;;;;;;6294274;28;21106;-80
2023/04/12 11:18:49;;;;;;;2.53;2.43;;;14.70;44.20;;;;;;6307575;28;20237;-77
2023/04/12 11:21:53;;;;;;;3.07;2.87;;;14.60;43.70;;;;;;6293352;28;20263;-79
2023/04/12 11:24:57;;;;;;;5.63;2.80;;;14.50;43.50;;;;;;6292902;28;20261;-80
2023/04/12 11:28:00;;;;;;;2.97;2.77;;;14.40;44.10;;;;;;6293460;28;20301;-78
2023/04/12 11:31:07;;;;;;;2.83;2.63;;;14.60;43.90;;;;;;6296605;28;20237;-79
2023/04/12 11:34:10;;;;;;;3.23;2.93;;;14.70;44.10;;;;;;6313722;28;20245;-78
2023/04/12 11:37:20;;;;;;;2.67;2.57;;;14.70;43.80;;;;;;6309016;28;20243;-79
2023/04/12 11:40:23;;;;;;;2.90;2.63;;;14.60;43.30;;;;;;6283234;28;20271;-81
2023/04/12 11:43:26;;;;;;;2.60;2.50;;;14.70;43.70;;;;;;6303317;28;20248;-78
2023/04/12 11:46:35;;;;;;;2.80;2.70;;;15.00;43.40;;;;;;6287804;28;20241;-80
2023/04/12 11:49:43;;;;;;;4.43;3.17;;;14.90;43.30;;;;;;6290224;28;20238;-78
2023/04/12 11:52:46;;;;;;;3.10;2.83;;;14.80;43.20;;;;;;6286212;28;20245;-78
2023/04/12 11:55:50;;;;;;;2.90;2.60;;;14.80;43.40;;;;;;6296230;28;20255;-79
2023/04/12 11:58:53;;;;;;;5.20;2.93;;;15.00;43.20;;;;;;6286799;28;20240;-79
2023/04/12 12:01:59;;;;;;;4.30;2.77;;;15.40;42.40;;;;;;6293092;28;20233;-80
2023/04/12 12:05:03;;;;;;;2.90;2.70;;;15.20;42.70;;;;;;6283252;28;20296;-80
2023/04/12 12:08:08;;;;;;;2.67;2.43;;;15.10;42.30;;;;;;6283620;28;20234;-79
2023/04/12 12:11:11;;;;;;;3.77;2.87;;;15.00;42.90;;;;;;6276457;28;20236;-79
2023/04/12 12:14:19;;;;;;;3.07;2.83;;;15.20;43.20;;;;;;6292151;28;20753;-76
2023/04/12 12:17:23;;;;;;;3.80;2.77;;;14.80;43.00;;;;;;6286660;28;20740;-79
2023/04/12 12:20:29;;;;;;;3.77;2.60;;;15.00;43.40;;;;;;6284408;28;20241;-80
2023/04/12 12:23:34;;;;;;;3.43;2.70;;;15.00;43.50;;;;;;6287328;28;20595;-78
2023/04/12 12:26:37;;;;;;;2.70;2.60;;;15.00;42.80;;;;;;6293666;27;20843;-79
2023/04/12 12:29:41;;;;;;;2.73;2.63;;;14.90;43.10;;;;;;6281834;28;20256;-81
2023/04/12 12:32:45;;;;;;;4.33;2.60;;;15.00;42.50;;;;;;6286296;28;20237;-79
2023/04/12 12:35:56;;;;;;;4.93;3.10;;;15.10;42.70;;;;;;6286318;28;20248;-80
2023/04/12 12:39:05;;;;;;;2.80;2.57;;;15.20;43.20;;;;;;6270856;28;20247;-80
2023/04/12 12:42:12;;;;;;;3.03;2.63;;;15.30;43.60;;;;;;6283453;28;20318;-80
2023/04/12 12:45:17;;;;;;;3.00;2.80;;;15.20;43.20;;;;;;6291032;28;20237;-77
2023/04/12 12:48:21;;;;;;;2.57;2.33;;;15.20;43.50;;;;;;6294695;28;20236;-80
2023/04/12 12:51:25;;;;;;;2.80;2.60;;;15.30;43.50;;;;;;6285249;28;20241;-80
2023/04/12 12:54:28;;;;;;;2.50;2.40;;;15.30;42.50;;;;;;6274835;28;20233;-80
2023/04/12 12:57:43;;;;;;;4.10;2.90;;;15.20;43.40;;;;;;6294585;28;20236;-81
2023/04/12 13:01:04;;;;;;;4.27;2.70;;;15.10;43.00;;;;;;6288928;28;20240;-78
2023/04/12 13:04:08;;;;;;;2.80;2.50;;;15.00;43.20;;;;;;6288610;28;20247;-80
2023/04/12 13:07:12;;;;;;;2.83;2.63;;;15.00;43.70;;;;;;6304530;28;20365;-82
2023/04/12 13:10:15;;;;;;;2.60;2.40;;;15.30;43.00;;;;;;6300681;28;20487;-79
2023/04/12 13:13:18;;;;;;;3.00;2.80;;;15.20;43.10;;;;;;6291056;28;20477;-82
2023/04/12 13:16:21;;;;;;;2.83;2.63;;;15.10;43.60;;;;;;6293445;28;20233;-78
2023/04/12 13:19:29;;;;;;;3.17;2.87;;;15.20;42.80;;;;;;6279017;28;20255;-80
2023/04/12 13:22:33;;;;;;;3.13;2.83;;;15.50;43.00;;;;;;6291340;28;20241;-79
2023/04/12 13:25:36;;;;;;;3.27;2.97;;;15.60;43.20;;;;;;6294039;28;20837;-79
2023/04/12 13:28:39;;;;;;;4.17;2.70;;;15.60;42.20;;;;;;6290139;28;20247;-79
2023/04/12 13:31:42;;;;;;;4.90;2.90;;;15.60;42.80;;;;;;6289493;28;20271;-78
2023/04/12 13:34:46;;;;;;;2.87;2.67;;;15.80;43.00;;;;;;6288640;28;20718;-80
2023/04/12 13:37:50;;;;;;;2.50;2.37;;;15.60;42.50;;;;;;6290750;28;20253;-79
2023/04/12 13:40:54;;;;;;;2.97;2.77;;;15.40;43.00;;;;;;6298217;28;20281;-78
2023/04/12 13:43:57;;;;;;;5.63;3.07;;;15.50;42.80;;;;;;6286920;28;20768;-82
2023/04/12 13:47:00;;;;;;;3.23;2.70;;;15.50;43.30;;;;;;6290824;28;20321;-80
2023/04/12 13:50:06;;;;;;;3.53;3.20;;;15.40;43.40;;;;;;6298737;28;20637;-80
2023/04/12 13:53:09;;;;;;;2.67;2.47;;;15.60;43.20;;;;;;6293162;28;20729;-80
2023/04/12 13:56:14;;;;;;;3.43;3.03;;;15.70;42.80;;;;;;6309073;28;20245;-77
2023/04/12 13:59:17;;;;;;;7.80;3.00;;;15.80;42.70;;;;;;6299776;28;20228;-80
2023/04/12 14:02:20;;;;;;;2.93;2.83;;;15.60;43.70;;;;;;6287266;28;20259;-80
2023/04/12 14:05:25;;;;;;;2.83;2.63;;;15.50;43.80;;;;;;6296796;28;20240;-78
2023/04/12 14:08:29;;;;;;;3.53;3.23;;;15.50;43.70;;;;;;6289203;28;20248;-78
2023/04/12 14:11:45;;;;;;;2.87;2.67;;;15.40;43.90;;;;;;6290411;28;20596;-80
2023/04/12 14:14:49;;;;;;;4.07;3.77;;;15.30;43.50;;;;;;6291640;28;20230;-79
2023/04/12 14:17:52;;;;;;;3.90;3.60;;;15.20;44.10;;;;;;6286074;28;20286;-81
2023/04/12 14:20:58;;;;;;;4.23;2.97;;;15.10;44.50;;;;;;6299723;28;20225;-79
2023/04/12 14:24:01;;;;;;;4.67;3.33;;;15.00;44.50;;;;;;6287777;28;20648;-80
2023/04/12 14:27:04;;;;;;;4.03;3.37;;;14.70;44.50;;;;;;6291915;28;20297;-78
2023/04/12 14:30:08;;;;;;;5.30;3.00;;;14.60;45.00;;;;;;6288182;28;20665;-79
2023/04/12 14:33:11;;;;;;;3.07;2.93;;;14.40;44.80;;;;;;6288114;28;20238;-79
2023/04/12 14:36:16;;;;;;;4.20;3.00;;;14.40;45.10;;;;;;6285681;28;20248;-81
2023/04/12 14:39:19;;;;;;;3.00;2.80;;;14.40;45.40;;;;;;6291893;28;20608;-77
2023/04/12 14:42:22;;;;;;;3.63;2.60;;;14.40;45.50;;;;;;6295843;28;20303;-79
2023/04/12 14:45:26;;;;;;;3.77;3.07;;;14.30;45.50;;;;;;6288089;28;20343;-80
2023/04/12 14:48:29;;;;;;;2.73;2.63;;;14.20;45.90;;;;;;6286845;28;20237;-77
2023/04/12 14:51:34;;;;;;;2.97;2.87;;;14.10;46.20;;;;;;6279475;28;20264;-79
2023/04/12 14:54:37;;;;;;;5.47;4.93;;;14.00;45.90;;;;;;6294557;28;20291;-80
2023/04/12 14:57:40;;;;;;;2.83;2.73;;;13.90;46.20;;;;;;6288213;28;20348;-80
2023/04/12 15:00:43;;;;;;;3.30;3.00;;;13.90;45.70;;;;;;6281779;28;20259;-80
2023/04/12 15:03:46;;;;;;;2.80;2.63;;;13.90;45.40;;;;;;6285108;28;20514;-80
2023/04/12 15:06:51;;;;;;;5.53;3.20;;;13.90;45.50;;;;;;6282820;28;20237;-79
2023/04/12 15:09:56;;;;;;;3.63;2.80;;;13.90;45.70;;;;;;6296892;28;20233;-80
2023/04/12 15:12:59;;;;;;;3.60;3.10;;;13.90;46.30;;;;;;6290059;28;20232;-79
2023/04/12 15:16:02;;;;;;;2.90;2.90;;;13.60;46.90;;;;;;6296822;28;20225;-80
2023/04/12 15:19:06;;;;;;;3.30;3.20;;;13.50;47.70;;;;;;6286832;28;20226;-79
2023/04/12 15:22:21;;;;;;;5.90;3.47;;;13.40;48.50;;;;;;6288174;28;20641;-79
2023/04/12 15:25:24;;;;;;;4.07;3.60;;;13.20;50.20;;;;;;6275839;28;20248;-80
2023/04/12 15:28:27;;;;;;;4.13;3.70;;;13.00;51.00;;;;;;6286599;28;20675;-79
2023/04/12 15:31:31;;;;;;;4.20;3.67;;;12.80;52.10;;;;;;6289466;28;20735;-80
2023/04/12 15:34:34;;;;;;;4.17;3.87;;;12.50;53.50;;;;;;6279346;28;20242;-80
2023/04/12 15:37:39;;;;;;;5.13;3.63;;;12.50;54.30;;;;;;6288823;28;20233;-80
2023/04/12 15:40:42;;;;;;;3.97;3.77;;;12.30;54.90;;;;;;6294157;28;20256;-79
2023/04/12 15:43:48;;;;;;;3.63;3.43;;;12.10;55.90;;;;;;6286370;28;20225;-82
2023/04/12 15:46:51;;;;;;;3.80;3.50;;;12.00;56.70;;;;;;6287851;28;20241;-82
2023/04/12 15:50:13;;;;;;;3.83;3.63;;;11.90;57.40;;;;;;6288275;28;20233;-81
2023/04/12 15:53:19;;;;;;;4.43;4.13;;;11.80;57.30;;;;;;6286119;28;20233;-83
2023/04/12 15:56:24;;;;;;;4.17;3.80;;;11.90;57.30;;;;;;6281214;28;20319;-79
2023/04/12 15:59:27;;;;;;;4.20;3.80;;;11.90;58.50;;;;;;6290345;28;20232;-79
2023/04/12 16:02:32;;;;;;;4.33;4.03;;;11.70;59.40;;;;;;6283637;28;20244;-78
2023/04/12 16:05:35;;;;;;;5.00;4.50;;;11.70;60.30;;;;;;6287194;28;20239;-80
2023/04/12 16:08:40;;;;;;;5.67;4.83;;;11.70;61.00;;;;;;6303166;28;20404;-74
2023/04/12 16:11:45;;;;;;;5.37;4.93;;;11.70;61.20;;;;;;6315510;28;20226;-78